My Meet Scores
Sara Middleton, Flipstar Gymnastics Academy - MyMeetScores.com
Top100 | Top Teams | Upcoming Meets | Completed Meets | Latest | Add Scores | Help| Support | Bookmark and Share

Sara Middleton, Flipstar Gymnastics Academy
Personal Bests
LevelVault BarsBeamFloorAA
39.5009.350 9.4009.27537.050
49.0009.225 9.7009.37536.900
58.6008.200 8.6508.80034.250
69.1259.350 9.4759.62537.425
Meet Scores
Date Meet Team Session Level Division Vault Bars Beam Floor AA
2019-03-01 2019 MEGA Spring Invite Flipstar Gymnastics Academy All 6 All Ages 8.450 46T 8.825 27T 9.325 20T 9.000 41T 35.600 32
2019-02-23 Kinetic Classic 2019 Flipstar Gymnastics Academy 1 6 Younger 8.975 7T 8.600 12 9.425 6 9.250 13T 36.250 8
2019-02-08 Midwest Twisters Harley Meet Womens Flipstar Gymnastics Academy O09 6 12 yrs. 8.550 10T 9.200 1 8.275 12 9.525 3T 35.550 3
2019-01-25 King Arthur Invitational Flipstar Gymnastics Academy 12 6 SR A 8.400 9 9.325 1 9.325 6 9.225 3 36.275 2
2019-01-11 Circle of Stars Gymnastics Flipstar Gymnastics Academy B09 6 Junior C 8.425 63 9.100 19T 8.850 38T 9.075 20 35.450 27
2018-12-07 Horton Invite Flipstar Gymnastics Academy All 6 Jr 8.625 6 9.050 4 9.000 4 8.950 11T 35.625 4
2018-03-16 2018 Illinois Level 6, 9, 10 State Championships Infinity Gymnastics Academy 07 6 Ch E 8.900 15T 8.950 11 8.750 23 9.625 7 36.225 17
2018-03-02 2018 Flip'r Invitational Infinity Gymnastics Academy 3 6 Jr Age 11 & up 9.125 9 9.350 4 9.475 1 9.475 2 37.425 1
2018-02-23 Kinetic Classic Infinity Gymnastics Academy 9 6 Middle 8.425 64T 8.350 62 9.075 35T 9.175 49 35.025 55
2018-02-02 Chris Waller's Heart Of A Champion Invitational Infinity Gymnastics Academy 01H 6 Jr B 8.175 10 7.900 11 9.150 6T 9.175 8 34.400 10
2018-01-18 Circle Of Stars Gymnastics Invitational Infinity Gymnastics Academy B4 6 Jr B 8.700 11 8.825 7 9.225 7 9.125 12 35.875 9
2018-01-12 St Jude Benefit Meet Infinity Gymnastics Academy 4C 6 JrB 8.650 9T 8.625 11 8.400 14 8.750 16 34.425 13
2017-11-04 Phyllis Matras Invite Infinity Gymnastics Academy 5 Junior A 8.600 11 8.200 8 8.650 4 8.800 2T 34.250 6
2017-03-10 2017 Illinois Level 4 State Championships Infinity Gymnastics Academy 4 4 Youth E 8.775 14T 8.700 18 9.475 2 8.900 16 35.850 14
2017-02-24 Houston National Invitational - Ocean View Infinity Gymnastics Academy O07 4 JR B 8.850 4T 9.200 4 9.700 2 9.150 6 36.900 3
2017-01-28 Wisconsin Dells Gymnastics Vacation Classic - USAG Infinity Gymnastics Academy B7 4 Junior A 8.825 3T 9.225 2 9.125 3 9.375 2 36.550 2
2017-01-20 2017 Bravo Classic Infinity Gymnastics Academy 06B 4 10yrs 8.650 11 9.075 16T 9.400 4T 9.150 9T 36.275 10
2017-01-13 St Jude Benefit Meet Infinity Gymnastics Academy 4A 4 Jr B 9.000 1T 8.900 10 9.000 10T 8.925 9 35.825 7T
2016-12-15 2016 Hawaiian Pineapple Sanction Infinity Gymnastics Academy 6A 4 Age 10 8.700 3 8.825 4T 9.350 2 9.150 3 36.025 2
2016-11-11 2016 Illinois Judges Cup Infinity Gymnastics Academy R3 4 9 Year Old 8.600 2T 9.050 2 8.825 2 8.700 5T 35.175 1
2016-03-04 2016 Illinois Level 3 State Championships Infinity Gymnastics Academy 3 Junior-B 9.175 17 9.200 8 9.400 2 9.275 5 37.050 5
2016-02-19 Midwest Open Womens 2016 Infinity Gymnastics Academy 1A 3 9+ 9.500 6 9.350 8 8.825 12 9.100 12 36.775 10
2016-02-05 Arizona Sunrays Classic Rock Invitational Infinity Gymnastics Academy R11 3 SrA 9.200 8 8.950 8 8.825 8 8.675 8 35.650 7
2015-12-17 2015 Hawaiian Pineapple Classic Infinity Gymnastics Academy 2B 3 Age 9 9.225 4 9.150 4 8.800 6 8.750 9 35.925 2
2015-12-11 St. Nick Invite Infinity Gymnastics Academy 5B 3 All 8.750 29T 9.125 10 8.725 12 8.700 28T 35.300 16
Get your scores on
a t-shirt, pin, or hoodie

www.lazysuits.com